PWSweather.com
Personal Weather Stations
Station Observations
VPOKROGLO
Kal Nad Kanalom, PrimorskaSI

Kal Nad KanalomPrimorskaSI

Lat: 46.072, Lon: 13.734

Elevation: 2526

Station Type: WS-2355

http://www.okroglovreme.com

Latest ConditionsUpdated 3:30:00 PM GMT+01:01 Friday, Jul 20, 2018
Currently Today's Max Today's Min Today's Average
Temperature 73.8°F23.2°C 81.7°F27.6°C 66.7°F19.3°C 73.6°F23.1°C
Dew Point 60.8°F16.0°C 65.1°F18.4°C 55.5°F13.1°C 59.6°F15.3°C
Winds 1.0 mph SW1.6 kmh SW 6.9 mph -11.1 kmh - - 1.7 mph 2.7 kmh
Wind Gusts 5.8 mph9.3 kmh 13.9 mph22.4 kmh - -
Humidity 64% 68% 53% 62%
Pressure 30.03 in1016.9 mb 30.04 in1017.3 mb 30.02 in1016.6 mb -
Hour Temp Dew Point Humidity Winds Wind Gusts Pressure Precip Precip Rate Daily Precip Total
03:30 PM 73.8°F23.2°C 60.8°F16.0°C 64% 1.0 mph SW1.6 kmh SW 5.8 mph9.3 kmh 30.03 in1016.9 mb 0.00 in0.0 mm 0.00 in0.0 mm 0.00 in0.0 mm
03:15 PM 74.5°F23.6°C 60.1°F15.6°C 61% 2.0 mph SW3.2 kmh SW 8.5 mph13.7 kmh 30.03 in1016.9 mb 0.00 in0.0 mm 0.00 in0.0 mm 0.00 in0.0 mm
03:00 PM 74.5°F23.6°C 59.7°F15.4°C 60% 2.1 mph SSW3.4 kmh SSW 4.7 mph7.6 kmh 30.02 in1016.6 mb 0.00 in0.0 mm 0.00 in0.0 mm 0.00 in0.0 mm
02:45 PM 74.8°F23.8°C 59.5°F15.3°C 59% 4.8 mph S7.7 kmh S 9.2 mph14.8 kmh 30.02 in1016.6 mb 0.00 in0.0 mm 0.00 in0.0 mm 0.00 in0.0 mm
02:30 PM 75.9°F24.4°C 60.1°F15.6°C 58% 5.2 mph SSW8.4 kmh SSW 8.9 mph14.3 kmh 30.02 in1016.6 mb 0.00 in0.0 mm 0.00 in0.0 mm 0.00 in0.0 mm
02:15 PM 78.1°F25.6°C 61.1°F16.2°C 56% 6.0 mph S9.7 kmh S 12.1 mph19.5 kmh 30.02 in1016.6 mb 0.00 in0.0 mm 0.00 in0.0 mm 0.00 in0.0 mm
02:00 PM 80.4°F26.9°C 63.3°F17.4°C 56% 3.1 mph SW5.0 kmh SW 8.3 mph13.4 kmh 30.02 in1016.6 mb 0.00 in0.0 mm 0.00 in0.0 mm 0.00 in0.0 mm
01:45 PM 79.5°F26.4°C 61.9°F16.6°C 55% 3.7 mph SW6.0 kmh SW 9.6 mph15.4 kmh 30.02 in1016.6 mb 0.00 in0.0 mm 0.00 in0.0 mm 0.00 in0.0 mm
01:30 PM 80.4°F26.9°C 62.2°F16.8°C 54% 5.3 mph SW8.5 kmh SW 12.8 mph20.6 kmh 30.02 in1016.6 mb 0.00 in0.0 mm 0.00 in0.0 mm 0.00 in0.0 mm
01:15 PM 80.6°F27.0°C 63.5°F17.5°C 56% 6.0 mph SW9.7 kmh SW 13.9 mph22.4 kmh 30.02 in1016.6 mb 0.00 in0.0 mm 0.00 in0.0 mm 0.00 in0.0 mm
01:00 PM 80.4°F26.9°C 62.8°F17.1°C 55% 5.6 mph SW9.0 kmh SW 12.1 mph19.5 kmh 30.02 in1016.6 mb 0.00 in0.0 mm 0.00 in0.0 mm 0.00 in0.0 mm
12:45 PM 81.7°F27.6°C 63.9°F17.7°C 55% 4.5 mph SW7.2 kmh SW 8.9 mph14.3 kmh 30.02 in1016.6 mb 0.00 in0.0 mm 0.00 in0.0 mm 0.00 in0.0 mm
12:30 PM 79.3°F26.3°C 61.8°F16.6°C 55% 6.9 mph SW11.1 kmh SW 12.1 mph19.5 kmh 30.02 in1016.6 mb 0.00 in0.0 mm 0.00 in0.0 mm 0.00 in0.0 mm
12:15 PM 81.3°F27.4°C 63.6°F17.6°C 55% 3.4 mph WSW5.5 kmh WSW 12.1 mph19.5 kmh 30.02 in1016.6 mb 0.00 in0.0 mm 0.00 in0.0 mm 0.00 in0.0 mm
12:00 PM 81.7°F27.6°C 62.9°F17.2°C 53% 4.3 mph WSW6.9 kmh WSW 10.5 mph16.9 kmh 30.03 in1016.9 mb 0.00 in0.0 mm 0.00 in0.0 mm 0.00 in0.0 mm
11:45 AM 81.5°F27.5°C 64.3°F17.9°C 56% 2.7 mph SSW4.3 kmh SSW 8.1 mph13.0 kmh 30.03 in1016.9 mb 0.00 in0.0 mm 0.00 in0.0 mm 0.00 in0.0 mm
11:30 AM 76.8°F24.9°C 58.4°F14.7°C 53% 3.8 mph SW6.1 kmh SW 8.7 mph14.0 kmh 30.04 in1017.3 mb 0.00 in0.0 mm 0.00 in0.0 mm 0.00 in0.0 mm
11:15 AM 78.1°F25.6°C 61.6°F16.4°C 57% 5.1 mph SSW8.2 kmh SSW 9.4 mph15.1 kmh 30.04 in1017.3 mb 0.00 in0.0 mm 0.00 in0.0 mm 0.00 in0.0 mm
11:00 AM 77.5°F25.3°C 59.6°F15.3°C 54% 3.2 mph SSW5.1 kmh SSW 8.1 mph13.0 kmh 30.04 in1017.3 mb 0.00 in0.0 mm 0.00 in0.0 mm 0.00 in0.0 mm
10:45 AM 77.4°F25.2°C 59.9°F15.5°C 55% 4.9 mph SSW7.9 kmh SSW 8.9 mph14.3 kmh 30.04 in1017.3 mb 0.00 in0.0 mm 0.00 in0.0 mm 0.00 in0.0 mm
10:30 AM 79.9°F26.6°C 62.3°F16.8°C 55% 2.9 mph SSW4.7 kmh SSW 8.5 mph13.7 kmh 30.04 in1017.3 mb 0.00 in0.0 mm 0.00 in0.0 mm 0.00 in0.0 mm
10:15 AM 80.8°F27.1°C 63.6°F17.6°C 56% 2.1 mph N3.4 kmh N 5.8 mph9.3 kmh 30.04 in1017.3 mb 0.00 in0.0 mm 0.00 in0.0 mm 0.00 in0.0 mm
10:00 AM 80.8°F27.1°C 65.1°F18.4°C 59% 0.7 mph N1.1 kmh N 2.5 mph4.0 kmh 30.04 in1017.3 mb 0.00 in0.0 mm 0.00 in0.0 mm 0.00 in0.0 mm
09:45 AM 79.7°F26.5°C 63.1°F17.3°C 57% 0.6 mph N1.0 kmh N 2.9 mph4.7 kmh 30.04 in1017.3 mb 0.00 in0.0 mm 0.00 in0.0 mm 0.00 in0.0 mm
09:30 AM 80.4°F26.9°C 63.8°F17.7°C 57% 0.7 mph N1.1 kmh N 2.7 mph4.3 kmh 30.04 in1017.3 mb 0.00 in0.0 mm 0.00 in0.0 mm 0.00 in0.0 mm
09:15 AM 78.6°F25.9°C 64.5°F18.1°C 62% 0.5 mph N0.8 kmh N 3.6 mph5.8 kmh 30.03 in1016.9 mb 0.00 in0.0 mm 0.00 in0.0 mm 0.00 in0.0 mm
09:00 AM 77.5°F25.3°C 64.4°F18.0°C 64% 0.1 mph N0.2 kmh N 1.3 mph2.1 kmh 30.02 in1016.6 mb 0.00 in0.0 mm 0.00 in0.0 mm 0.00 in0.0 mm
08:45 AM 76.8°F24.9°C 64.2°F17.9°C 65% 0.1 mph N0.2 kmh N 1.6 mph2.6 kmh 30.02 in1016.6 mb 0.00 in0.0 mm 0.00 in0.0 mm 0.00 in0.0 mm
08:30 AM 77.5°F25.3°C 63.5°F17.5°C 62% 0.6 mph N1.0 kmh N 2.9 mph4.7 kmh 30.02 in1016.6 mb 0.00 in0.0 mm 0.00 in0.0 mm 0.00 in0.0 mm
08:15 AM 77.0°F25.0°C 63.0°F17.2°C 62% 0.2 mph N0.3 kmh N 1.8 mph2.9 kmh 30.02 in1016.6 mb 0.00 in0.0 mm 0.00 in0.0 mm 0.00 in0.0 mm
08:00 AM 76.8°F24.9°C 63.3°F17.4°C 63% 0.2 mph N0.3 kmh N 2.0 mph3.2 kmh 30.02 in1016.6 mb 0.00 in0.0 mm 0.00 in0.0 mm 0.00 in0.0 mm
07:45 AM 74.8°F23.8°C 62.7°F17.1°C 66% Calm Calm -- 30.02 in1016.6 mb 0.00 in0.0 mm 0.00 in0.0 mm 0.00 in0.0 mm
07:30 AM 74.5°F23.6°C 62.4°F16.9°C 66% Calm Calm -- 30.02 in1016.6 mb 0.00 in0.0 mm 0.00 in0.0 mm 0.00 in0.0 mm
07:15 AM 72.9°F22.7°C 61.3°F16.3°C 67% Calm Calm -- 30.02 in1016.6 mb 0.00 in0.0 mm 0.00 in0.0 mm 0.00 in0.0 mm
07:00 AM 73.2°F22.9°C 61.6°F16.4°C 67% 0.1 mph NE0.2 kmh NE 1.8 mph2.9 kmh 30.02 in1016.6 mb 0.00 in0.0 mm 0.00 in0.0 mm 0.00 in0.0 mm
06:45 AM 71.2°F21.8°C 59.3°F15.2°C 66% 0.1 mph NE0.2 kmh NE 2.0 mph3.2 kmh 30.02 in1016.6 mb 0.00 in0.0 mm 0.00 in0.0 mm 0.00 in0.0 mm
06:30 AM 69.8°F21.0°C 57.9°F14.4°C 66% Calm Calm 1.3 mph2.1 kmh 30.02 in1016.6 mb 0.00 in0.0 mm 0.00 in0.0 mm 0.00 in0.0 mm
06:15 AM 68.2°F20.1°C 57.2°F14.0°C 68% 0.2 mph NE0.3 kmh NE 1.8 mph2.9 kmh 30.03 in1016.9 mb 0.00 in0.0 mm 0.00 in0.0 mm 0.00 in0.0 mm
06:00 AM 68.0°F20.0°C 56.6°F13.7°C 67% 1.0 mph NE1.6 kmh NE 4.3 mph6.9 kmh 30.02 in1016.6 mb 0.00 in0.0 mm 0.00 in0.0 mm 0.00 in0.0 mm
05:45 AM 67.6°F19.8°C 56.3°F13.5°C 67% 1.7 mph ENE2.7 kmh ENE 3.8 mph6.1 kmh 30.03 in1016.9 mb 0.00 in0.0 mm 0.00 in0.0 mm 0.00 in0.0 mm
05:30 AM 66.9°F19.4°C 56.0°F13.3°C 68% 0.7 mph NNE1.1 kmh NNE 2.9 mph4.7 kmh 30.02 in1016.6 mb 0.00 in0.0 mm 0.00 in0.0 mm 0.00 in0.0 mm
05:15 AM 66.9°F19.4°C 56.0°F13.3°C 68% 0.4 mph NE0.6 kmh NE 2.5 mph4.0 kmh 30.02 in1016.6 mb 0.00 in0.0 mm 0.00 in0.0 mm 0.00 in0.0 mm
05:00 AM 67.3°F19.6°C 55.5°F13.1°C 66% 0.2 mph NE0.3 kmh NE 2.2 mph3.5 kmh 30.02 in1016.6 mb 0.00 in0.0 mm 0.00 in0.0 mm 0.00 in0.0 mm
04:45 AM 67.8°F19.9°C 55.6°F13.1°C 65% 1.6 mph ENE2.6 kmh ENE 3.8 mph6.1 kmh 30.03 in1016.9 mb 0.00 in0.0 mm 0.00 in0.0 mm 0.00 in0.0 mm
04:30 AM 67.8°F19.9°C 55.6°F13.1°C 65% 0.7 mph E1.1 kmh E 2.5 mph4.0 kmh 30.03 in1016.9 mb 0.00 in0.0 mm 0.00 in0.0 mm 0.00 in0.0 mm
04:15 AM 67.6°F19.8°C 55.9°F13.3°C 66% 1.1 mph E1.8 kmh E 3.1 mph5.0 kmh 30.04 in1017.3 mb 0.00 in0.0 mm 0.00 in0.0 mm 0.00 in0.0 mm
04:00 AM 67.8°F19.9°C 56.0°F13.3°C 66% 0.8 mph ENE1.3 kmh ENE 2.5 mph4.0 kmh 30.03 in1016.9 mb 0.00 in0.0 mm 0.00 in0.0 mm 0.00 in0.0 mm
03:45 AM 67.6°F19.8°C 55.9°F13.3°C 66% 0.9 mph ENE1.4 kmh ENE 3.6 mph5.8 kmh 30.03 in1016.9 mb 0.00 in0.0 mm 0.00 in0.0 mm 0.00 in0.0 mm
03:30 AM 67.3°F19.6°C 55.9°F13.3°C 67% 0.1 mph NNW0.2 kmh NNW 2.0 mph3.2 kmh 30.04 in1017.3 mb 0.00 in0.0 mm 0.00 in0.0 mm 0.00 in0.0 mm
03:15 AM 67.6°F19.8°C 56.3°F13.5°C 67% Calm Calm -- 30.04 in1017.3 mb 0.00 in0.0 mm 0.00 in0.0 mm 0.00 in0.0 mm
03:00 AM 67.3°F19.6°C 55.9°F13.3°C 67% 0.3 mph NNW0.5 kmh NNW 2.5 mph4.0 kmh 30.04 in1017.3 mb 0.00 in0.0 mm 0.00 in0.0 mm 0.00 in0.0 mm
02:45 AM 66.7°F19.3°C 55.8°F13.2°C 68% Calm Calm -- 30.04 in1017.3 mb 0.00 in0.0 mm 0.00 in0.0 mm 0.00 in0.0 mm
02:30 AM 67.1°F19.5°C 55.8°F13.2°C 67% Calm Calm 0.9 mph1.4 kmh 30.04 in1017.3 mb 0.00 in0.0 mm 0.00 in0.0 mm 0.00 in0.0 mm
02:15 AM 67.6°F19.8°C 56.3°F13.5°C 67% 0.1 mph NNW0.2 kmh NNW 1.3 mph2.1 kmh 30.04 in1017.3 mb 0.00 in0.0 mm 0.00 in0.0 mm 0.00 in0.0 mm
02:00 AM 67.8°F19.9°C 56.0°F13.3°C 66% 0.3 mph NNW0.5 kmh NNW 1.6 mph2.6 kmh 30.04 in1017.3 mb 0.00 in0.0 mm 0.00 in0.0 mm 0.00 in0.0 mm
01:45 AM 68.2°F20.1°C 56.0°F13.3°C 65% 0.3 mph NNW0.5 kmh NNW 3.6 mph5.8 kmh 30.04 in1017.3 mb 0.00 in0.0 mm 0.00 in0.0 mm 0.00 in0.0 mm
01:30 AM 69.1°F20.6°C 56.8°F13.8°C 65% 0.7 mph NNW1.1 kmh NNW 3.6 mph5.8 kmh 30.04 in1017.3 mb 0.00 in0.0 mm 0.00 in0.0 mm 0.00 in0.0 mm
01:15 AM 69.1°F20.6°C 56.8°F13.8°C 65% 1.5 mph N2.4 kmh N 6.9 mph11.1 kmh 30.04 in1017.3 mb 0.00 in0.0 mm 0.00 in0.0 mm 0.00 in0.0 mm
01:00 AM 69.1°F20.6°C 56.8°F13.8°C 65% 1.2 mph NNW1.9 kmh NNW 5.1 mph8.2 kmh 30.04 in1017.3 mb 0.00 in0.0 mm 0.00 in0.0 mm 0.00 in0.0 mm
12:45 AM 68.9°F20.5°C 56.6°F13.7°C 65% 0.5 mph NNW0.8 kmh NNW 2.9 mph4.7 kmh 30.04 in1017.3 mb 0.00 in0.0 mm 0.00 in0.0 mm 0.00 in0.0 mm
12:30 AM 69.1°F20.6°C 56.4°F13.6°C 64% 2.1 mph NNW3.4 kmh NNW 4.0 mph6.4 kmh 30.04 in1017.3 mb 0.00 in0.0 mm 0.00 in0.0 mm 0.00 in0.0 mm
12:15 AM 68.7°F20.4°C 56.0°F13.3°C 64% 0.3 mph SSW0.5 kmh SSW 2.5 mph4.0 kmh 30.03 in1016.9 mb 0.00 in0.0 mm 0.00 in0.0 mm 0.00 in0.0 mm
12:00 AM 68.9°F20.5°C 55.8°F13.2°C 63% Calm Calm 1.1 mph1.8 kmh 30.04 in1017.3 mb 0.00 in0.0 mm 0.00 in0.0 mm 0.00 in0.0 mm